Hovedside
METAR-TAF:

METAR-TAF

Lufthavner :

Hammerfest, Norge

Hammerfest lufthavn

breddegrad: 70-40N, lengdegrad: 023-40E, høyde over havet: 8 m

Gjeldene værobservasjon

Denne rapporten ble laget for 29 minutter siden, klokken 13:20 UTC
Vind 3 kt fra skiftende retning
Temperatur -5°C
Luftfuktighet 45%
Trykk 1045 hPa
Sikt 10 km eller mer
ingen skyer under 1500 m og ingen bygeskyer

METAR: ENHF 251320Z VRB03KT CAVOK M05/M15 Q1045 RMK WIND 1254FT 18007KT

Tid: 14:49 (13:49 UTC)

Varsel

Denne rapporten ble laget for 2 timer og 49 minutter siden, klokken 11:00 UTC
Varsel gyldig fra 25. klokken 12 UTC til 25. klokken 21 UTC
Vind 8 kt fra Øst-sørøst
Sikt 10 km eller mer
ingen skyer under 1500 m og ingen bygeskyer

TAF: ENHF 251100Z 2512/2521 12008KT CAVOK

Værobservasjoner og værvarsel for over 4000 flyplasser (METAR- og TAF-rapporter).

Tilgjengelige stasjoner er representert av de røde og gule prikkene på kartet.

Hold musepekeren over prikken for å se navnet på stasjonen.

Klikk så for å se værobservasjoner og -varsler.

For å forandre kartet kan du klikke på den grønne knappen med svart kryss for å zoome inn, på den grønne knappen med strek for å zoome ut, eller på de grønne pilene for å se tilstøtende kart.


METAR-TAF: